sensor_id;sensor_type;location;lat;lon;timestamp;P1;durP1;ratioP1;P2;durP2;ratioP2
12816;SDS011;6473;51.552;6.716;2022-10-17T00:00:22;6.43;;;5.88;;
12816;SDS011;6473;51.552;6.716;2022-10-17T00:02:50;9.35;;;6.15;;
12816;SDS011;6473;51.552;6.716;2022-10-17T00:05:17;7.70;;;5.97;;
12816;SDS011;6473;51.552;6.716;2022-10-17T00:07:44;6.90;;;6.20;;
12816;SDS011;6473;51.552;6.716;2022-10-17T00:10:11;6.18;;;5.68;;
12816;SDS011;6473;51.552;6.716;2022-10-17T00:12:39;6.82;;;6.10;;
12816;SDS011;6473;51.552;6.716;2022-10-17T00:15:10;8.77;;;6.10;;
12816;SDS011;6473;51.552;6.716;2022-10-17T00:17:40;8.07;;;6.45;;
12816;SDS011;6473;51.552;6.716;2022-10-17T00:20:10;6.10;;;5.60;;
12816;SDS011;6473;51.552;6.716;2022-10-17T00:22:37;7.88;;;5.90;;
12816;SDS011;6473;51.552;6.716;2022-10-17T00:25:05;6.93;;;6.22;;
12816;SDS011;6473;51.552;6.716;2022-10-17T00:27:33;6.93;;;5.60;;
12816;SDS011;6473;51.552;6.716;2022-10-17T00:30:02;6.70;;;5.97;;
12816;SDS011;6473;51.552;6.716;2022-10-17T00:32:30;6.57;;;5.90;;
12816;SDS011;6473;51.552;6.716;2022-10-17T00:34:57;6.60;;;5.90;;
12816;SDS011;6473;51.552;6.716;2022-10-17T00:37:24;7.43;;;6.07;;
12816;SDS011;6473;51.552;6.716;2022-10-17T00:39:52;7.72;;;5.95;;
12816;SDS011;6473;51.552;6.716;2022-10-17T00:42:19;7.43;;;6.72;;
12816;SDS011;6473;51.552;6.716;2022-10-17T00:45:13;7.30;;;6.35;;
12816;SDS011;6473;51.552;6.716;2022-10-17T00:47:46;10.52;;;6.53;;
12816;SDS011;6473;51.552;6.716;2022-10-17T00:50:17;8.15;;;5.60;;
12816;SDS011;6473;51.552;6.716;2022-10-17T00:52:44;8.48;;;6.05;;
12816;SDS011;6473;51.552;6.716;2022-10-17T00:55:16;6.25;;;5.70;;
12816;SDS011;6473;51.552;6.716;2022-10-17T00:57:47;7.35;;;6.15;;
12816;SDS011;6473;51.552;6.716;2022-10-17T01:00:16;6.40;;;5.53;;
12816;SDS011;6473;51.552;6.716;2022-10-17T01:02:46;7.10;;;5.80;;
12816;SDS011;6473;51.552;6.716;2022-10-17T01:05:15;9.10;;;6.03;;
12816;SDS011;6473;51.552;6.716;2022-10-17T01:07:43;6.93;;;6.00;;
12816;SDS011;6473;51.552;6.716;2022-10-17T01:10:12;6.97;;;6.15;;
12816;SDS011;6473;51.552;6.716;2022-10-17T01:12:57;6.72;;;6.00;;
12816;SDS011;6473;51.552;6.716;2022-10-17T01:15:36;6.80;;;5.97;;
12816;SDS011;6473;51.552;6.716;2022-10-17T01:18:12;9.07;;;6.03;;
12816;SDS011;6473;51.552;6.716;2022-10-17T01:20:59;6.80;;;5.75;;
12816;SDS011;6473;51.552;6.716;2022-10-17T01:27:22;6.93;;;6.13;;
12816;SDS011;6473;51.552;6.716;2022-10-17T01:30:00;8.90;;;5.75;;
12816;SDS011;6473;51.552;6.716;2022-10-17T01:32:47;6.20;;;5.60;;
12816;SDS011;6473;51.552;6.716;2022-10-17T01:35:21;8.65;;;6.50;;
12816;SDS011;6473;51.552;6.716;2022-10-17T01:37:54;8.63;;;5.47;;
12816;SDS011;6473;51.552;6.716;2022-10-17T01:40:31;7.15;;;5.90;;
12816;SDS011;6473;51.552;6.716;2022-10-17T01:43:03;6.07;;;5.35;;
12816;SDS011;6473;51.552;6.716;2022-10-17T01:45:36;8.52;;;6.50;;
12816;SDS011;6473;51.552;6.716;2022-10-17T01:48:10;7.47;;;6.63;;
12816;SDS011;6473;51.552;6.716;2022-10-17T01:50:42;8.77;;;6.60;;
12816;SDS011;6473;51.552;6.716;2022-10-17T01:53:15;12.48;;;8.45;;
12816;SDS011;6473;51.552;6.716;2022-10-17T01:55:47;11.07;;;8.57;;
12816;SDS011;6473;51.552;6.716;2022-10-17T01:58:19;11.48;;;9.30;;
12816;SDS011;6473;51.552;6.716;2022-10-17T02:00:50;15.40;;;10.10;;
12816;SDS011;6473;51.552;6.716;2022-10-17T02:03:21;15.23;;;9.65;;
12816;SDS011;6473;51.552;6.716;2022-10-17T02:05:49;11.82;;;9.63;;
12816;SDS011;6473;51.552;6.716;2022-10-17T02:08:23;11.52;;;9.43;;
12816;SDS011;6473;51.552;6.716;2022-10-17T02:10:53;10.63;;;9.43;;
12816;SDS011;6473;51.552;6.716;2022-10-17T02:13:23;12.38;;;9.23;;
12816;SDS011;6473;51.552;6.716;2022-10-17T02:16:07;13.40;;;9.20;;
12816;SDS011;6473;51.552;6.716;2022-10-17T02:18:46;9.30;;;7.90;;
12816;SDS011;6473;51.552;6.716;2022-10-17T02:21:23;12.85;;;8.35;;
12816;SDS011;6473;51.552;6.716;2022-10-17T02:23:59;10.68;;;8.07;;
12816;SDS011;6473;51.552;6.716;2022-10-17T02:26:35;11.30;;;7.80;;
12816;SDS011;6473;51.552;6.716;2022-10-17T02:29:15;10.82;;;7.18;;
12816;SDS011;6473;51.552;6.716;2022-10-17T02:31:47;9.90;;;7.28;;
12816;SDS011;6473;51.552;6.716;2022-10-17T02:34:20;13.60;;;8.05;;
12816;SDS011;6473;51.552;6.716;2022-10-17T02:37:05;11.68;;;7.53;;
12816;SDS011;6473;51.552;6.716;2022-10-17T02:39:36;10.27;;;7.63;;
12816;SDS011;6473;51.552;6.716;2022-10-17T02:42:06;8.77;;;7.53;;
12816;SDS011;6473;51.552;6.716;2022-10-17T02:44:51;9.55;;;7.20;;
12816;SDS011;6473;51.552;6.716;2022-10-17T02:47:36;10.75;;;6.70;;
12816;SDS011;6473;51.552;6.716;2022-10-17T02:50:16;10.15;;;7.22;;
12816;SDS011;6473;51.552;6.716;2022-10-17T02:52:48;10.50;;;6.70;;
12816;SDS011;6473;51.552;6.716;2022-10-17T02:55:42;8.88;;;7.13;;
12816;SDS011;6473;51.552;6.716;2022-10-17T02:58:21;10.70;;;6.70;;
12816;SDS011;6473;51.552;6.716;2022-10-17T03:00:55;7.57;;;6.72;;
12816;SDS011;6473;51.552;6.716;2022-10-17T03:03:36;8.00;;;6.40;;
12816;SDS011;6473;51.552;6.716;2022-10-17T03:06:07;8.57;;;6.85;;
12816;SDS011;6473;51.552;6.716;2022-10-17T03:08:35;8.70;;;6.72;;
12816;SDS011;6473;51.552;6.716;2022-10-17T03:11:17;10.38;;;7.25;;
12816;SDS011;6473;51.552;6.716;2022-10-17T03:13:57;11.85;;;6.72;;
12816;SDS011;6473;51.552;6.716;2022-10-17T03:16:48;9.48;;;7.35;;
12816;SDS011;6473;51.552;6.716;2022-10-17T03:19:35;7.90;;;7.10;;
12816;SDS011;6473;51.552;6.716;2022-10-17T03:22:14;9.32;;;6.90;;
12816;SDS011;6473;51.552;6.716;2022-10-17T03:24:44;9.18;;;6.45;;
12816;SDS011;6473;51.552;6.716;2022-10-17T03:27:11;9.68;;;6.55;;
12816;SDS011;6473;51.552;6.716;2022-10-17T03:29:50;10.75;;;6.60;;
12816;SDS011;6473;51.552;6.716;2022-10-17T03:32:28;9.13;;;6.85;;
12816;SDS011;6473;51.552;6.716;2022-10-17T03:34:56;10.55;;;7.13;;
12816;SDS011;6473;51.552;6.716;2022-10-17T03:37:24;10.13;;;7.00;;
12816;SDS011;6473;51.552;6.716;2022-10-17T03:39:51;7.65;;;6.10;;
12816;SDS011;6473;51.552;6.716;2022-10-17T03:42:18;8.45;;;6.10;;
12816;SDS011;6473;51.552;6.716;2022-10-17T03:44:46;7.05;;;5.93;;
12816;SDS011;6473;51.552;6.716;2022-10-17T03:47:13;8.20;;;6.20;;
12816;SDS011;6473;51.552;6.716;2022-10-17T03:49:40;7.30;;;6.13;;
12816;SDS011;6473;51.552;6.716;2022-10-17T03:52:48;10.68;;;5.40;;
12816;SDS011;6473;51.552;6.716;2022-10-17T03:55:26;7.68;;;5.97;;
12816;SDS011;6473;51.552;6.716;2022-10-17T03:57:54;9.95;;;5.55;;
12816;SDS011;6473;51.552;6.716;2022-10-17T04:00:25;11.02;;;6.13;;
12816;SDS011;6473;51.552;6.716;2022-10-17T04:02:56;7.40;;;5.40;;
12816;SDS011;6473;51.552;6.716;2022-10-17T04:05:24;10.40;;;5.97;;
12816;SDS011;6473;51.552;6.716;2022-10-17T04:07:53;10.93;;;6.32;;
12816;SDS011;6473;51.552;6.716;2022-10-17T04:10:41;7.90;;;6.45;;
12816;SDS011;6473;51.552;6.716;2022-10-17T04:13:08;8.18;;;6.38;;
12816;SDS011;6473;51.552;6.716;2022-10-17T04:15:36;8.32;;;6.18;;
12816;SDS011;6473;51.552;6.716;2022-10-17T04:18:03;8.48;;;5.90;;
12816;SDS011;6473;51.552;6.716;2022-10-17T04:20:30;7.32;;;5.57;;
12816;SDS011;6473;51.552;6.716;2022-10-17T04:23:01;6.38;;;5.28;;
12816;SDS011;6473;51.552;6.716;2022-10-17T04:25:28;7.38;;;5.97;;
12816;SDS011;6473;51.552;6.716;2022-10-17T04:27:55;8.75;;;6.22;;
12816;SDS011;6473;51.552;6.716;2022-10-17T04:30:23;8.63;;;6.03;;
12816;SDS011;6473;51.552;6.716;2022-10-17T04:32:50;11.73;;;6.18;;
12816;SDS011;6473;51.552;6.716;2022-10-17T04:35:20;11.63;;;7.00;;
12816;SDS011;6473;51.552;6.716;2022-10-17T04:37:55;9.63;;;6.68;;
12816;SDS011;6473;51.552;6.716;2022-10-17T04:40:25;8.70;;;6.45;;
12816;SDS011;6473;51.552;6.716;2022-10-17T04:42:52;11.50;;;6.18;;
12816;SDS011;6473;51.552;6.716;2022-10-17T04:45:27;9.32;;;5.90;;
12816;SDS011;6473;51.552;6.716;2022-10-17T04:48:00;10.65;;;6.57;;
12816;SDS011;6473;51.552;6.716;2022-10-17T04:50:27;10.43;;;6.13;;
12816;SDS011;6473;51.552;6.716;2022-10-17T04:53:33;6.95;;;6.18;;
12816;SDS011;6473;51.552;6.716;2022-10-17T04:56:07;8.57;;;6.22;;
12816;SDS011;6473;51.552;6.716;2022-10-17T04:58:36;10.45;;;5.88;;
12816;SDS011;6473;51.552;6.716;2022-10-17T05:01:04;7.78;;;5.90;;
12816;SDS011;6473;51.552;6.716;2022-10-17T05:03:33;6.63;;;5.80;;
12816;SDS011;6473;51.552;6.716;2022-10-17T05:06:05;11.10;;;5.90;;
12816;SDS011;6473;51.552;6.716;2022-10-17T05:08:33;8.75;;;5.50;;
12816;SDS011;6473;51.552;6.716;2022-10-17T05:11:01;6.78;;;5.25;;
12816;SDS011;6473;51.552;6.716;2022-10-17T05:13:33;8.27;;;5.55;;
12816;SDS011;6473;51.552;6.716;2022-10-17T05:16:03;6.72;;;5.05;;
12816;SDS011;6473;51.552;6.716;2022-10-17T05:18:41;8.30;;;5.22;;
12816;SDS011;6473;51.552;6.716;2022-10-17T05:21:08;8.27;;;5.00;;
12816;SDS011;6473;51.552;6.716;2022-10-17T05:23:59;6.65;;;4.93;;
12816;SDS011;6473;51.552;6.716;2022-10-17T05:26:31;6.60;;;5.20;;
12816;SDS011;6473;51.552;6.716;2022-10-17T05:32:13;5.43;;;4.93;;
12816;SDS011;6473;51.552;6.716;2022-10-17T05:34:41;10.45;;;5.22;;
12816;SDS011;6473;51.552;6.716;2022-10-17T05:37:09;8.38;;;5.68;;
12816;SDS011;6473;51.552;6.716;2022-10-17T05:39:49;5.57;;;4.90;;
12816;SDS011;6473;51.552;6.716;2022-10-17T05:42:28;7.80;;;5.18;;
12816;SDS011;6473;51.552;6.716;2022-10-17T05:45:05;6.88;;;4.80;;
12816;SDS011;6473;51.552;6.716;2022-10-17T05:47:50;6.05;;;4.72;;
12816;SDS011;6473;51.552;6.716;2022-10-17T05:50:18;7.68;;;5.35;;
12816;SDS011;6473;51.552;6.716;2022-10-17T05:53:14;8.50;;;4.75;;
12816;SDS011;6473;51.552;6.716;2022-10-17T05:55:58;8.52;;;5.07;;
12816;SDS011;6473;51.552;6.716;2022-10-17T05:58:28;7.32;;;5.43;;
12816;SDS011;6473;51.552;6.716;2022-10-17T06:03:39;6.82;;;5.15;;
12816;SDS011;6473;51.552;6.716;2022-10-17T06:06:08;9.02;;;4.60;;
12816;SDS011;6473;51.552;6.716;2022-10-17T06:08:40;8.65;;;5.22;;
12816;SDS011;6473;51.552;6.716;2022-10-17T06:11:11;7.10;;;5.85;;
12816;SDS011;6473;51.552;6.716;2022-10-17T06:13:38;8.73;;;5.25;;
12816;SDS011;6473;51.552;6.716;2022-10-17T06:16:15;15.50;;;5.57;;
12816;SDS011;6473;51.552;6.716;2022-10-17T06:18:43;9.32;;;6.68;;
12816;SDS011;6473;51.552;6.716;2022-10-17T06:21:11;11.38;;;6.20;;
12816;SDS011;6473;51.552;6.716;2022-10-17T06:23:47;10.23;;;7.10;;
12816;SDS011;6473;51.552;6.716;2022-10-17T06:26:28;10.27;;;6.50;;
12816;SDS011;6473;51.552;6.716;2022-10-17T06:28:55;10.93;;;6.70;;
12816;SDS011;6473;51.552;6.716;2022-10-17T06:31:26;11.77;;;6.15;;
12816;SDS011;6473;51.552;6.716;2022-10-17T06:33:54;8.68;;;5.70;;
12816;SDS011;6473;51.552;6.716;2022-10-17T06:36:25;9.95;;;6.13;;
12816;SDS011;6473;51.552;6.716;2022-10-17T06:38:53;11.55;;;5.80;;
12816;SDS011;6473;51.552;6.716;2022-10-17T06:41:27;13.38;;;5.80;;
12816;SDS011;6473;51.552;6.716;2022-10-17T06:44:11;7.13;;;5.15;;
12816;SDS011;6473;51.552;6.716;2022-10-17T06:46:50;8.32;;;5.70;;
12816;SDS011;6473;51.552;6.716;2022-10-17T06:49:17;8.90;;;5.53;;
12816;SDS011;6473;51.552;6.716;2022-10-17T06:51:58;10.52;;;5.13;;
12816;SDS011;6473;51.552;6.716;2022-10-17T06:54:39;10.00;;;5.60;;
12816;SDS011;6473;51.552;6.716;2022-10-17T06:57:32;8.48;;;5.15;;
12816;SDS011;6473;51.552;6.716;2022-10-17T07:00:24;7.53;;;5.15;;
12816;SDS011;6473;51.552;6.716;2022-10-17T07:02:56;13.85;;;5.45;;
12816;SDS011;6473;51.552;6.716;2022-10-17T07:05:40;10.15;;;5.57;;
12816;SDS011;6473;51.552;6.716;2022-10-17T07:08:07;12.20;;;5.85;;
12816;SDS011;6473;51.552;6.716;2022-10-17T07:11:07;6.65;;;5.15;;
12816;SDS011;6473;51.552;6.716;2022-10-17T07:13:38;12.98;;;5.78;;
12816;SDS011;6473;51.552;6.716;2022-10-17T07:16:08;11.40;;;6.10;;
12816;SDS011;6473;51.552;6.716;2022-10-17T07:18:40;7.32;;;5.70;;
12816;SDS011;6473;51.552;6.716;2022-10-17T07:21:16;8.52;;;5.45;;
12816;SDS011;6473;51.552;6.716;2022-10-17T07:23:44;7.65;;;5.15;;
12816;SDS011;6473;51.552;6.716;2022-10-17T07:26:12;10.32;;;5.32;;
12816;SDS011;6473;51.552;6.716;2022-10-17T07:28:42;5.72;;;3.97;;
12816;SDS011;6473;51.552;6.716;2022-10-17T07:31:33;8.15;;;4.55;;
12816;SDS011;6473;51.552;6.716;2022-10-17T07:34:03;6.90;;;4.50;;
12816;SDS011;6473;51.552;6.716;2022-10-17T07:36:31;7.18;;;4.22;;
12816;SDS011;6473;51.552;6.716;2022-10-17T07:39:21;7.25;;;4.35;;
12816;SDS011;6473;51.552;6.716;2022-10-17T07:41:48;5.50;;;4.70;;
12816;SDS011;6473;51.552;6.716;2022-10-17T07:44:16;5.75;;;4.50;;
12816;SDS011;6473;51.552;6.716;2022-10-17T07:46:47;5.38;;;4.55;;
12816;SDS011;6473;51.552;6.716;2022-10-17T07:49:46;7.15;;;5.03;;
12816;SDS011;6473;51.552;6.716;2022-10-17T07:52:26;6.97;;;5.13;;
12816;SDS011;6473;51.552;6.716;2022-10-17T07:54:54;7.47;;;4.68;;
12816;SDS011;6473;51.552;6.716;2022-10-17T07:57:21;13.73;;;4.75;;
12816;SDS011;6473;51.552;6.716;2022-10-17T08:00:19;6.55;;;4.80;;
12816;SDS011;6473;51.552;6.716;2022-10-17T08:02:42;11.98;;;5.20;;
12816;SDS011;6473;51.552;6.716;2022-10-17T08:05:11;6.47;;;4.40;;
12816;SDS011;6473;51.552;6.716;2022-10-17T08:07:38;8.23;;;4.20;;
12816;SDS011;6473;51.552;6.716;2022-10-17T08:10:12;7.57;;;4.40;;
12816;SDS011;6473;51.552;6.716;2022-10-17T08:12:40;7.25;;;5.68;;
12816;SDS011;6473;51.552;6.716;2022-10-17T08:15:08;11.45;;;5.78;;
12816;SDS011;6473;51.552;6.716;2022-10-17T08:17:36;13.35;;;5.57;;
12816;SDS011;6473;51.552;6.716;2022-10-17T08:20:07;7.88;;;5.03;;
12816;SDS011;6473;51.552;6.716;2022-10-17T08:22:36;7.40;;;4.90;;
12816;SDS011;6473;51.552;6.716;2022-10-17T08:25:04;5.10;;;4.22;;
12816;SDS011;6473;51.552;6.716;2022-10-17T08:27:32;5.50;;;4.30;;
12816;SDS011;6473;51.552;6.716;2022-10-17T08:29:59;6.53;;;3.92;;
12816;SDS011;6473;51.552;6.716;2022-10-17T08:32:27;7.55;;;4.25;;
12816;SDS011;6473;51.552;6.716;2022-10-17T08:35:08;7.53;;;3.97;;
12816;SDS011;6473;51.552;6.716;2022-10-17T08:37:50;8.88;;;4.05;;
12816;SDS011;6473;51.552;6.716;2022-10-17T08:40:18;8.80;;;4.28;;
12816;SDS011;6473;51.552;6.716;2022-10-17T08:43:03;9.70;;;3.80;;
12816;SDS011;6473;51.552;6.716;2022-10-17T08:45:50;5.43;;;3.63;;
12816;SDS011;6473;51.552;6.716;2022-10-17T08:48:28;8.98;;;4.13;;
12816;SDS011;6473;51.552;6.716;2022-10-17T08:51:14;6.95;;;3.92;;
12816;SDS011;6473;51.552;6.716;2022-10-17T08:54:17;9.20;;;4.25;;
12816;SDS011;6473;51.552;6.716;2022-10-17T08:56:48;9.75;;;4.30;;
12816;SDS011;6473;51.552;6.716;2022-10-17T08:59:22;6.07;;;3.38;;
12816;SDS011;6473;51.552;6.716;2022-10-17T09:02:11;5.03;;;3.40;;
12816;SDS011;6473;51.552;6.716;2022-10-17T09:05:15;5.47;;;3.22;;
12816;SDS011;6473;51.552;6.716;2022-10-17T09:08:09;5.55;;;3.60;;
12816;SDS011;6473;51.552;6.716;2022-10-17T09:10:51;6.25;;;3.17;;
12816;SDS011;6473;51.552;6.716;2022-10-17T09:13:45;8.57;;;3.95;;
12816;SDS011;6473;51.552;6.716;2022-10-17T09:19:53;4.35;;;3.00;;
12816;SDS011;6473;51.552;6.716;2022-10-17T09:22:40;3.85;;;3.40;;
12816;SDS011;6473;51.552;6.716;2022-10-17T09:25:16;6.47;;;3.65;;
12816;SDS011;6473;51.552;6.716;2022-10-17T09:28:13;6.18;;;3.10;;
12816;SDS011;6473;51.552;6.716;2022-10-17T09:31:15;6.00;;;3.25;;
12816;SDS011;6473;51.552;6.716;2022-10-17T09:33:48;7.03;;;3.33;;
12816;SDS011;6473;51.552;6.716;2022-10-17T09:36:19;4.20;;;3.20;;
12816;SDS011;6473;51.552;6.716;2022-10-17T09:38:51;3.65;;;3.20;;
12816;SDS011;6473;51.552;6.716;2022-10-17T09:41:25;4.70;;;3.70;;
12816;SDS011;6473;51.552;6.716;2022-10-17T09:44:11;8.70;;;4.20;;
12816;SDS011;6473;51.552;6.716;2022-10-17T09:46:59;5.55;;;4.15;;
12816;SDS011;6473;51.552;6.716;2022-10-17T09:49:42;8.45;;;4.07;;
12816;SDS011;6473;51.552;6.716;2022-10-17T09:52:14;7.55;;;4.10;;
12816;SDS011;6473;51.552;6.716;2022-10-17T09:54:47;5.60;;;3.92;;
12816;SDS011;6473;51.552;6.716;2022-10-17T09:57:18;5.30;;;3.58;;
12816;SDS011;6473;51.552;6.716;2022-10-17T10:00:18;5.07;;;3.80;;
12816;SDS011;6473;51.552;6.716;2022-10-17T10:08:27;6.55;;;3.78;;
12816;SDS011;6473;51.552;6.716;2022-10-17T10:10:59;5.00;;;3.03;;
12816;SDS011;6473;51.552;6.716;2022-10-17T10:13:32;4.55;;;3.35;;
12816;SDS011;6473;51.552;6.716;2022-10-17T10:16:15;3.63;;;3.03;;
12816;SDS011;6473;51.552;6.716;2022-10-17T10:18:47;6.90;;;3.30;;
12816;SDS011;6473;51.552;6.716;2022-10-17T10:21:19;4.60;;;3.20;;
12816;SDS011;6473;51.552;6.716;2022-10-17T10:24:09;4.72;;;3.58;;
12816;SDS011;6473;51.552;6.716;2022-10-17T10:26:46;5.28;;;3.55;;
12816;SDS011;6473;51.552;6.716;2022-10-17T10:29:32;3.72;;;3.33;;
12816;SDS011;6473;51.552;6.716;2022-10-17T10:32:08;4.97;;;4.03;;
12816;SDS011;6473;51.552;6.716;2022-10-17T10:34:47;4.30;;;3.53;;
12816;SDS011;6473;51.552;6.716;2022-10-17T10:37:40;7.78;;;3.30;;
12816;SDS011;6473;51.552;6.716;2022-10-17T10:40:30;8.00;;;4.07;;
12816;SDS011;6473;51.552;6.716;2022-10-17T10:46:32;5.10;;;3.47;;
12816;SDS011;6473;51.552;6.716;2022-10-17T10:49:28;4.90;;;3.83;;
12816;SDS011;6473;51.552;6.716;2022-10-17T10:51:59;5.55;;;3.58;;
12816;SDS011;6473;51.552;6.716;2022-10-17T10:54:38;5.90;;;3.53;;
12816;SDS011;6473;51.552;6.716;2022-10-17T10:57:24;6.45;;;4.15;;
12816;SDS011;6473;51.552;6.716;2022-10-17T11:00:08;5.28;;;3.80;;
12816;SDS011;6473;51.552;6.716;2022-10-17T11:03:22;4.20;;;3.80;;
12816;SDS011;6473;51.552;6.716;2022-10-17T11:06:00;8.63;;;4.40;;
12816;SDS011;6473;51.552;6.716;2022-10-17T11:08:39;6.35;;;4.18;;
12816;SDS011;6473;51.552;6.716;2022-10-17T11:11:14;5.43;;;4.22;;
12816;SDS011;6473;51.552;6.716;2022-10-17T11:13:58;7.78;;;4.07;;
12816;SDS011;6473;51.552;6.716;2022-10-17T11:16:38;7.22;;;4.40;;
12816;SDS011;6473;51.552;6.716;2022-10-17T11:19:14;6.90;;;5.10;;
12816;SDS011;6473;51.552;6.716;2022-10-17T11:21:51;8.60;;;5.60;;
12816;SDS011;6473;51.552;6.716;2022-10-17T11:24:29;9.55;;;5.13;;
12816;SDS011;6473;51.552;6.716;2022-10-17T11:27:02;8.80;;;4.68;;
12816;SDS011;6473;51.552;6.716;2022-10-17T11:29:34;6.28;;;4.75;;
12816;SDS011;6473;51.552;6.716;2022-10-17T11:32:05;8.38;;;5.47;;
12816;SDS011;6473;51.552;6.716;2022-10-17T11:34:41;9.40;;;6.82;;
12816;SDS011;6473;51.552;6.716;2022-10-17T11:37:22;10.80;;;5.93;;
12816;SDS011;6473;51.552;6.716;2022-10-17T11:39:55;5.90;;;4.90;;
12816;SDS011;6473;51.552;6.716;2022-10-17T11:42:29;6.72;;;5.95;;
12816;SDS011;6473;51.552;6.716;2022-10-17T11:45:01;7.10;;;5.15;;
12816;SDS011;6473;51.552;6.716;2022-10-17T11:47:35;12.05;;;5.38;;
12816;SDS011;6473;51.552;6.716;2022-10-17T11:50:15;9.10;;;6.10;;
12816;SDS011;6473;51.552;6.716;2022-10-17T11:52:50;8.93;;;5.78;;
12816;SDS011;6473;51.552;6.716;2022-10-17T11:55:28;8.35;;;5.15;;
12816;SDS011;6473;51.552;6.716;2022-10-17T12:00:51;8.85;;;4.13;;
12816;SDS011;6473;51.552;6.716;2022-10-17T12:03:31;7.20;;;4.03;;
12816;SDS011;6473;51.552;6.716;2022-10-17T12:06:15;4.50;;;4.10;;
12816;SDS011;6473;51.552;6.716;2022-10-17T12:08:57;5.30;;;4.25;;
12816;SDS011;6473;51.552;6.716;2022-10-17T12:11:33;5.20;;;4.70;;
12816;SDS011;6473;51.552;6.716;2022-10-17T12:17:42;8.20;;;4.75;;
12816;SDS011;6473;51.552;6.716;2022-10-17T12:20:27;6.70;;;4.78;;
12816;SDS011;6473;51.552;6.716;2022-10-17T12:23:35;11.52;;;5.10;;
12816;SDS011;6473;51.552;6.716;2022-10-17T12:26:09;8.80;;;5.18;;
12816;SDS011;6473;51.552;6.716;2022-10-17T12:28:40;7.38;;;5.38;;
12816;SDS011;6473;51.552;6.716;2022-10-17T12:31:28;5.93;;;5.13;;
12816;SDS011;6473;51.552;6.716;2022-10-17T12:34:14;8.93;;;5.47;;
12816;SDS011;6473;51.552;6.716;2022-10-17T12:36:55;8.55;;;5.03;;
12816;SDS011;6473;51.552;6.716;2022-10-17T12:39:42;6.15;;;5.18;;
12816;SDS011;6473;51.552;6.716;2022-10-17T12:51:33;7.75;;;4.93;;
12816;SDS011;6473;51.552;6.716;2022-10-17T12:54:37;4.53;;;3.72;;
12816;SDS011;6473;51.552;6.716;2022-10-17T13:00:28;4.68;;;3.72;;
12816;SDS011;6473;51.552;6.716;2022-10-17T13:03:04;4.50;;;3.58;;
12816;SDS011;6473;51.552;6.716;2022-10-17T13:05:39;7.07;;;3.80;;
12816;SDS011;6473;51.552;6.716;2022-10-17T13:08:36;4.32;;;3.80;;
12816;SDS011;6473;51.552;6.716;2022-10-17T13:11:26;5.18;;;3.38;;
12816;SDS011;6473;51.552;6.716;2022-10-17T13:13:56;5.57;;;3.50;;
12816;SDS011;6473;51.552;6.716;2022-10-17T13:16:32;4.78;;;3.35;;
12816;SDS011;6473;51.552;6.716;2022-10-17T13:19:01;5.75;;;3.28;;
12816;SDS011;6473;51.552;6.716;2022-10-17T13:21:47;4.85;;;3.30;;
12816;SDS011;6473;51.552;6.716;2022-10-17T13:24:19;8.95;;;3.15;;
12816;SDS011;6473;51.552;6.716;2022-10-17T13:26:47;3.33;;;2.92;;
12816;SDS011;6473;51.552;6.716;2022-10-17T13:29:14;7.45;;;3.15;;
12816;SDS011;6473;51.552;6.716;2022-10-17T13:31:50;6.82;;;3.58;;
12816;SDS011;6473;51.552;6.716;2022-10-17T13:34:22;3.20;;;2.90;;
12816;SDS011;6473;51.552;6.716;2022-10-17T13:37:04;4.65;;;3.28;;
12816;SDS011;6473;51.552;6.716;2022-10-17T13:39:33;6.07;;;3.38;;
12816;SDS011;6473;51.552;6.716;2022-10-17T13:42:12;3.90;;;3.53;;
12816;SDS011;6473;51.552;6.716;2022-10-17T13:44:54;3.65;;;3.22;;
12816;SDS011;6473;51.552;6.716;2022-10-17T13:47:40;3.30;;;3.00;;
12816;SDS011;6473;51.552;6.716;2022-10-17T13:50:12;5.20;;;3.30;;
12816;SDS011;6473;51.552;6.716;2022-10-17T13:52:46;4.05;;;2.85;;
12816;SDS011;6473;51.552;6.716;2022-10-17T13:55:31;6.30;;;3.25;;
12816;SDS011;6473;51.552;6.716;2022-10-17T13:58:07;4.40;;;3.55;;
12816;SDS011;6473;51.552;6.716;2022-10-17T14:00:42;6.93;;;3.38;;
12816;SDS011;6473;51.552;6.716;2022-10-17T14:03:21;4.80;;;3.10;;
12816;SDS011;6473;51.552;6.716;2022-10-17T14:08:47;13.43;;;3.33;;
12816;SDS011;6473;51.552;6.716;2022-10-17T14:11:21;5.88;;;3.30;;
12816;SDS011;6473;51.552;6.716;2022-10-17T14:14:15;3.83;;;2.97;;
12816;SDS011;6473;51.552;6.716;2022-10-17T14:16:45;6.22;;;3.55;;
12816;SDS011;6473;51.552;6.716;2022-10-17T14:19:22;3.58;;;3.28;;
12816;SDS011;6473;51.552;6.716;2022-10-17T14:21:52;6.13;;;3.08;;
12816;SDS011;6473;51.552;6.716;2022-10-17T14:24:43;4.82;;;2.92;;
12816;SDS011;6473;51.552;6.716;2022-10-17T14:27:27;3.67;;;2.90;;
12816;SDS011;6473;51.552;6.716;2022-10-17T14:30:41;5.72;;;3.28;;
12816;SDS011;6473;51.552;6.716;2022-10-17T14:33:18;5.18;;;3.10;;
12816;SDS011;6473;51.552;6.716;2022-10-17T14:36:19;4.95;;;2.65;;
12816;SDS011;6473;51.552;6.716;2022-10-17T14:39:01;7.63;;;3.75;;
12816;SDS011;6473;51.552;6.716;2022-10-17T14:41:47;8.65;;;3.10;;
12816;SDS011;6473;51.552;6.716;2022-10-17T14:44:19;4.35;;;3.17;;
12816;SDS011;6473;51.552;6.716;2022-10-17T14:46:55;8.05;;;3.40;;
12816;SDS011;6473;51.552;6.716;2022-10-17T14:49:47;3.60;;;3.30;;
12816;SDS011;6473;51.552;6.716;2022-10-17T14:52:24;5.30;;;3.50;;
12816;SDS011;6473;51.552;6.716;2022-10-17T14:55:33;5.97;;;3.20;;
12816;SDS011;6473;51.552;6.716;2022-10-17T14:58:15;8.48;;;3.10;;
12816;SDS011;6473;51.552;6.716;2022-10-17T15:00:43;4.63;;;3.35;;
12816;SDS011;6473;51.552;6.716;2022-10-17T15:03:11;5.45;;;3.10;;
12816;SDS011;6473;51.552;6.716;2022-10-17T15:05:51;5.57;;;3.15;;
12816;SDS011;6473;51.552;6.716;2022-10-17T15:08:29;4.95;;;3.10;;
12816;SDS011;6473;51.552;6.716;2022-10-17T15:11:14;6.30;;;3.10;;
12816;SDS011;6473;51.552;6.716;2022-10-17T15:13:45;4.43;;;3.45;;
12816;SDS011;6473;51.552;6.716;2022-10-17T15:16:14;6.43;;;3.45;;
12816;SDS011;6473;51.552;6.716;2022-10-17T15:18:47;5.60;;;3.47;;
12816;SDS011;6473;51.552;6.716;2022-10-17T15:21:34;4.82;;;3.65;;
12816;SDS011;6473;51.552;6.716;2022-10-17T15:24:11;6.47;;;3.72;;
12816;SDS011;6473;51.552;6.716;2022-10-17T15:26:49;6.20;;;3.85;;
12816;SDS011;6473;51.552;6.716;2022-10-17T15:29:19;5.55;;;3.67;;
12816;SDS011;6473;51.552;6.716;2022-10-17T15:31:46;9.32;;;3.90;;
12816;SDS011;6473;51.552;6.716;2022-10-17T15:34:35;6.15;;;3.70;;
12816;SDS011;6473;51.552;6.716;2022-10-17T15:37:23;5.03;;;3.60;;
12816;SDS011;6473;51.552;6.716;2022-10-17T15:39:53;9.25;;;3.90;;
12816;SDS011;6473;51.552;6.716;2022-10-17T15:45:15;7.53;;;3.97;;
12816;SDS011;6473;51.552;6.716;2022-10-17T15:47:48;6.38;;;4.20;;
12816;SDS011;6473;51.552;6.716;2022-10-17T15:50:18;6.95;;;4.22;;
12816;SDS011;6473;51.552;6.716;2022-10-17T15:53:07;7.35;;;4.63;;
12816;SDS011;6473;51.552;6.716;2022-10-17T15:56:20;8.63;;;4.32;;
12816;SDS011;6473;51.552;6.716;2022-10-17T15:58:50;5.07;;;4.20;;
12816;SDS011;6473;51.552;6.716;2022-10-17T16:01:20;6.95;;;4.47;;
12816;SDS011;6473;51.552;6.716;2022-10-17T16:04:05;6.18;;;4.85;;
12816;SDS011;6473;51.552;6.716;2022-10-17T16:06:32;5.80;;;4.93;;
12816;SDS011;6473;51.552;6.716;2022-10-17T16:08:59;7.88;;;4.75;;
12816;SDS011;6473;51.552;6.716;2022-10-17T16:11:29;8.00;;;4.95;;
12816;SDS011;6473;51.552;6.716;2022-10-17T16:14:02;6.38;;;4.95;;
12816;SDS011;6473;51.552;6.716;2022-10-17T16:16:31;6.15;;;5.47;;
12816;SDS011;6473;51.552;6.716;2022-10-17T16:18:58;8.75;;;5.10;;
12816;SDS011;6473;51.552;6.716;2022-10-17T16:21:29;7.60;;;5.65;;
12816;SDS011;6473;51.552;6.716;2022-10-17T16:23:58;6.00;;;5.30;;
12816;SDS011;6473;51.552;6.716;2022-10-17T16:26:25;5.85;;;5.30;;
12816;SDS011;6473;51.552;6.716;2022-10-17T16:28:55;6.25;;;5.65;;
12816;SDS011;6473;51.552;6.716;2022-10-17T16:31:27;9.02;;;5.93;;
12816;SDS011;6473;51.552;6.716;2022-10-17T16:33:58;8.02;;;5.97;;
12816;SDS011;6473;51.552;6.716;2022-10-17T16:36:26;6.63;;;5.43;;
12816;SDS011;6473;51.552;6.716;2022-10-17T16:39:06;7.63;;;6.32;;